Time;durP1;ratioP1;P1;durP2;ratioP2;P2;SDS_P1;SDS_P2;PMS_P1;PMS_P2;Temp;Humidity;BMP_temperature;BMP_pressure;BME280_temperature;BME280_humidity;BME280_pressure;Samples;Min_cycle;Max_cycle;Signal;HPM_P1;HPM_P2
2023/01/25 00:00:28;;;;;;;22.73;15.00;;;0.50;99.90;;;;;;4969965;28;20055;-63
2023/01/25 00:02:55;;;;;;;24.73;14.40;;;0.50;99.90;;;;;;4974327;28;20113;-62
2023/01/25 00:05:22;;;;;;;26.08;15.75;;;0.50;99.90;;;;;;4972689;28;20070;-62
2023/01/25 00:07:49;;;;;;;23.55;15.43;;;0.50;99.90;;;;;;4973483;28;20046;-64
2023/01/25 00:10:16;;;;;;;25.30;16.08;;;0.50;99.90;;;;;;4972503;28;20101;-64
2023/01/25 00:12:44;;;;;;;24.02;14.60;;;0.50;99.90;;;;;;4974070;28;20113;-64
2023/01/25 00:15:12;;;;;;;26.25;15.23;;;0.50;99.90;;;;;;4971957;28;20491;-63
2023/01/25 00:17:39;;;;;;;23.88;15.80;;;0.60;99.90;;;;;;4972339;28;20438;-63
2023/01/25 00:20:07;;;;;;;24.35;16.40;;;0.50;99.90;;;;;;4972451;28;20473;-63
2023/01/25 00:22:34;;;;;;;24.15;15.27;;;0.50;99.90;;;;;;4971795;28;20565;-64
2023/01/25 00:25:00;;;;;;;25.45;15.88;;;0.40;99.90;;;;;;4971761;28;20055;-63
2023/01/25 00:27:27;;;;;;;22.92;14.98;;;0.50;99.90;;;;;;4973215;28;20043;-63
2023/01/25 00:29:56;;;;;;;25.42;15.82;;;0.50;99.90;;;;;;4973025;28;20055;-63
2023/01/25 00:32:40;;;;;;;24.40;15.00;;;0.50;99.90;;;;;;4972226;28;20058;-64
2023/01/25 00:35:11;;;;;;;26.15;16.38;;;0.50;99.90;;;;;;4956096;28;20051;-64
2023/01/25 00:37:39;;;;;;;;;;;0.50;99.90;;;;;;4974000;28;20047;-64
2023/01/25 00:40:07;;;;;;;26.23;16.17;;;0.50;99.90;;;;;;4973993;28;19937;-64
2023/01/25 00:42:33;;;;;;;25.95;14.60;;;0.50;99.90;;;;;;4971688;28;20447;-65
2023/01/25 00:45:02;;;;;;;25.85;15.95;;;0.50;99.90;;;;;;4973890;28;20043;-65
2023/01/25 00:47:29;;;;;;;22.95;16.17;;;0.50;99.90;;;;;;4971881;28;20054;-65
2023/01/25 00:49:56;;;;;;;26.77;17.08;;;0.50;99.90;;;;;;4973168;28;20053;-64
2023/01/25 00:52:23;;;;;;;29.20;17.02;;;0.40;99.90;;;;;;4971973;28;20050;-64
2023/01/25 00:54:49;;;;;;;25.65;15.77;;;0.40;99.90;;;;;;4971895;28;20058;-63
2023/01/25 00:57:16;;;;;;;26.40;15.57;;;0.30;99.90;;;;;;4971349;28;20084;-64
2023/01/25 00:59:44;;;;;;;25.30;16.38;;;0.40;99.90;;;;;;4972137;28;20516;-62
2023/01/25 01:02:13;;;;;;;27.00;16.08;;;0.40;99.90;;;;;;4973560;28;20459;-63
2023/01/25 01:04:40;;;;;;;25.52;16.30;;;0.40;99.90;;;;;;4972900;28;20050;-62
2023/01/25 01:07:07;;;;;;;24.38;15.75;;;0.40;99.90;;;;;;4973495;28;20047;-62
2023/01/25 01:09:34;;;;;;;25.77;16.58;;;0.40;99.90;;;;;;4971736;28;20050;-62
2023/01/25 01:12:01;;;;;;;27.75;16.45;;;0.30;99.90;;;;;;4971193;28;20055;-62
2023/01/25 01:14:28;;;;;;;27.27;15.90;;;0.30;99.90;;;;;;4989795;28;20047;-62
2023/01/25 01:16:55;;;;;;;27.00;16.45;;;0.40;99.90;;;;;;4973859;28;20506;-63
2023/01/25 01:19:23;;;;;;;26.45;16.75;;;0.40;99.90;;;;;;4991718;28;20065;-63
2023/01/25 01:21:50;;;;;;;26.05;16.30;;;0.30;99.90;;;;;;4974311;28;20483;-62
2023/01/25 01:24:18;;;;;;;29.65;17.27;;;0.30;99.90;;;;;;4991119;28;20410;-62
2023/01/25 01:26:45;;;;;;;27.50;16.30;;;0.30;99.90;;;;;;4969165;28;20114;-62
2023/01/25 01:29:13;;;;;;;26.35;15.75;;;0.30;99.90;;;;;;4971381;28;20400;-62
2023/01/25 01:31:40;;;;;;;26.13;15.93;;;0.30;99.90;;;;;;4970894;28;20483;-63
2023/01/25 01:34:06;;;;;;;27.30;17.17;;;0.30;99.90;;;;;;4971438;28;20177;-63
2023/01/25 01:36:35;;;;;;;28.30;16.70;;;0.20;99.90;;;;;;4971329;28;20485;-63
2023/01/25 01:39:02;;;;;;;25.65;16.60;;;0.20;99.90;;;;;;4972784;28;20368;-62
2023/01/25 01:41:28;;;;;;;26.13;17.10;;;0.20;99.90;;;;;;4976722;28;20051;-62
2023/01/25 01:43:55;;;;;;;26.00;16.60;;;0.20;99.90;;;;;;4976673;28;20491;-62
2023/01/25 01:46:27;;;;;;;29.98;17.65;;;0.20;99.90;;;;;;4975885;28;20047;-63
2023/01/25 01:48:57;;;;;;;26.17;16.67;;;0.20;99.90;;;;;;4993530;28;20459;-62
2023/01/25 01:51:29;;;;;;;26.48;16.38;;;0.20;99.90;;;;;;4995044;28;20049;-62
2023/01/25 01:54:01;;;;;;;29.70;16.52;;;0.10;99.90;;;;;;4977099;28;20054;-63
2023/01/25 01:56:34;;;;;;;27.08;17.25;;;0.10;99.90;;;;;;4977356;28;20521;-63
2023/01/25 01:59:04;;;;;;;28.25;16.27;;;0.10;99.90;;;;;;4994978;28;20054;-63
2023/01/25 02:01:32;;;;;;;27.63;16.90;;;0.10;99.90;;;;;;4994699;28;20517;-62
2023/01/25 02:03:59;;;;;;;28.73;17.25;;;0.10;99.90;;;;;;4976324;28;20395;-62
2023/01/25 02:06:36;;;;;;;28.27;17.15;;;0.10;99.90;;;;;;4975500;28;20852;-63
2023/01/25 02:09:04;;;;;;;29.85;18.08;;;0.10;99.90;;;;;;4974487;28;20058;-61
2023/01/25 02:11:33;;;;;;;32.83;17.83;;;0.00;99.90;;;;;;4976206;28;20050;-63
2023/01/25 02:14:01;;;;;;;29.25;17.83;;;0.10;99.90;;;;;;4976922;28;20050;-63
2023/01/25 02:16:29;;;;;;;31.42;18.83;;;0.10;99.90;;;;;;4994171;28;20510;-63
2023/01/25 02:19:00;;;;;;;32.92;19.38;;;0.10;99.90;;;;;;4994502;28;20046;-62
2023/01/25 02:21:36;;;;;;;28.70;18.10;;;0.10;99.90;;;;;;4976934;28;20066;-63
2023/01/25 02:24:10;;;;;;;30.02;16.98;;;0.10;99.90;;;;;;4976193;28;20508;-63
2023/01/25 02:26:39;;;;;;;34.13;19.02;;;0.10;99.90;;;;;;4958448;28;20054;-63
2023/01/25 02:29:08;;;;;;;31.55;18.73;;;0.10;99.90;;;;;;4975251;28;20047;-63
2023/01/25 02:31:35;;;;;;;29.92;18.73;;;0.10;99.90;;;;;;4975791;28;20047;-63
2023/01/25 02:34:02;;;;;;;33.58;20.10;;;0.20;99.90;;;;;;4975675;28;20058;-62
2023/01/25 02:36:33;;;;;;;33.97;19.52;;;0.10;99.90;;;;;;4957789;28;20125;-63
2023/01/25 02:39:02;;;;;;;35.45;19.70;;;0.10;99.90;;;;;;4958216;28;20050;-63
2023/01/25 02:41:34;;;;;;;32.25;19.60;;;0.10;99.90;;;;;;4975161;28;20115;-62
2023/01/25 02:44:07;;;;;;;33.45;18.63;;;0.30;99.90;;;;;;4976593;28;20057;-63
2023/01/25 02:46:36;;;;;;;34.47;19.85;;;0.10;99.90;;;;;;4993613;28;20054;-63
2023/01/25 02:49:05;;;;;;;34.95;19.92;;;0.00;99.90;;;;;;4991873;28;20043;-62
2023/01/25 02:51:35;;;;;;;36.03;21.05;;;0.10;99.90;;;;;;4975755;28;20093;-62
2023/01/25 02:54:02;;;;;;;34.88;20.30;;;0.10;99.90;;;;;;4993613;28;20053;-63
2023/01/25 02:56:29;;;;;;;34.20;20.45;;;0.10;99.90;;;;;;4993048;28;20149;-62
2023/01/25 02:58:56;;;;;;;36.53;21.83;;;0.30;99.90;;;;;;4976085;28;20491;-62
2023/01/25 03:01:25;;;;;;;35.83;20.52;;;0.10;99.90;;;;;;4993359;28;20061;-62
2023/01/25 03:03:51;;;;;;;40.83;24.10;;;0.00;99.90;;;;;;4993049;28;20412;-63
2023/01/25 03:06:18;;;;;;;41.60;24.17;;;0.00;99.90;;;;;;4993470;28;20077;-62
2023/01/25 03:08:46;;;;;;;45.55;26.10;;;-0.10;99.90;;;;;;4993237;28;20042;-62
2023/01/25 03:11:12;;;;;;;44.50;24.83;;;-0.10;99.90;;;;;;4975481;28;20046;-62
2023/01/25 03:13:39;;;;;;;43.08;24.15;;;-0.10;99.90;;;;;;4993111;28;20450;-62
2023/01/25 03:16:09;;;;;;;42.92;25.10;;;0.00;99.90;;;;;;4993372;28;20042;-62
2023/01/25 03:18:38;;;;;;;48.22;24.85;;;0.00;99.90;;;;;;4974380;28;20050;-62
2023/01/25 03:21:07;;;;;;;50.55;26.35;;;0.20;99.90;;;;;;4973255;28;20483;-63
2023/01/25 03:23:34;;;;;;;43.60;25.30;;;0.00;99.90;;;;;;4972551;28;20083;-62
2023/01/25 03:26:09;;;;;;;47.50;26.70;;;0.10;99.90;;;;;;4972652;28;20063;-62
2023/01/25 03:28:37;;;;;;;46.80;25.27;;;0.10;99.90;;;;;;4972656;28;20513;-62
2023/01/25 03:31:05;;;;;;;50.40;26.48;;;0.00;99.90;;;;;;4972635;28;20055;-62
2023/01/25 03:33:32;;;;;;;49.75;25.77;;;0.00;99.90;;;;;;4974781;28;20055;-62
2023/01/25 03:36:01;;;;;;;46.97;25.25;;;-0.10;99.90;;;;;;4974697;28;20046;-62
2023/01/25 03:38:28;;;;;;;48.08;26.50;;;-0.10;99.90;;;;;;4972304;28;20046;-63
2023/01/25 03:40:56;;;;;;;47.80;25.92;;;0.00;99.90;;;;;;4970645;28;20050;-62
2023/01/25 03:43:23;;;;;;;48.33;24.90;;;-0.10;99.90;;;;;;4972584;28;20074;-62
2023/01/25 03:45:54;;;;;;;46.17;25.05;;;-0.10;99.90;;;;;;4972174;28;20051;-62
2023/01/25 03:48:21;;;;;;;;;;;-0.10;99.90;;;;;;4974659;28;20050;-62
2023/01/25 03:50:52;;;;;;;48.63;26.25;;;-0.10;99.90;;;;;;4974393;28;19930;-62
2023/01/25 03:53:26;;;;;;;48.92;26.60;;;-0.10;99.90;;;;;;4973733;28;20046;-62
2023/01/25 03:55:55;;;;;;;44.72;24.98;;;-0.10;99.90;;;;;;4987592;28;20061;-63
2023/01/25 03:58:22;;;;;;;48.60;26.85;;;-0.10;99.90;;;;;;4974198;28;20086;-62
2023/01/25 04:00:49;;;;;;;48.60;25.35;;;-0.20;99.90;;;;;;4972767;28;20057;-62
2023/01/25 04:03:18;;;;;;;49.75;25.35;;;-0.20;99.90;;;;;;4992365;28;20054;-62
2023/01/25 04:05:45;;;;;;;49.97;26.65;;;-0.20;99.90;;;;;;4975220;28;20125;-62
2023/01/25 04:08:12;;;;;;;50.13;26.98;;;-0.20;99.90;;;;;;4973871;28;20105;-63
2023/01/25 04:10:40;;;;;;;51.05;27.77;;;-0.20;99.90;;;;;;4974067;28;20050;-63
2023/01/25 04:13:07;;;;;;;53.80;27.83;;;-0.20;99.90;;;;;;4956244;28;20051;-63
2023/01/25 04:15:34;;;;;;;51.88;26.63;;;-0.20;99.90;;;;;;4956633;28;20498;-63
2023/01/25 04:18:01;;;;;;;47.95;25.73;;;-0.20;99.90;;;;;;4973789;28;20046;-62
2023/01/25 04:20:28;;;;;;;51.30;27.15;;;-0.10;99.90;;;;;;4956274;28;20042;-62
2023/01/25 04:22:55;;;;;;;49.50;28.25;;;-0.20;99.90;;;;;;4956760;28;20057;-62
2023/01/25 04:25:21;;;;;;;54.13;27.60;;;-0.10;99.90;;;;;;4991894;28;20514;-63
2023/01/25 04:27:51;;;;;;;47.38;26.27;;;-0.10;99.90;;;;;;4974455;28;20046;-62
2023/01/25 04:30:18;;;;;;;51.17;26.98;;;-0.10;99.90;;;;;;4973744;28;20046;-63
2023/01/25 04:32:45;;;;;;;49.90;27.80;;;-0.10;99.90;;;;;;4971545;28;20451;-63
2023/01/25 04:35:12;;;;;;;53.00;26.33;;;-0.20;99.90;;;;;;4971504;28;20051;-63
2023/01/25 04:37:38;;;;;;;49.80;27.42;;;-0.10;99.90;;;;;;4969576;28;20541;-63
2023/01/25 04:40:07;;;;;;;51.72;27.42;;;-0.10;99.90;;;;;;4983755;28;20488;-63
2023/01/25 04:42:34;;;;;;;48.42;26.63;;;-0.20;99.90;;;;;;4971387;28;20070;-62
2023/01/25 04:45:03;;;;;;;49.90;28.90;;;-0.20;99.90;;;;;;4971048;28;20491;-63
2023/01/25 04:47:30;;;;;;;52.75;27.77;;;-0.20;99.90;;;;;;4987655;28;20137;-63
2023/01/25 04:49:57;;;;;;;49.15;26.90;;;-0.30;99.90;;;;;;4971455;28;20062;-63
2023/01/25 04:52:23;;;;;;;51.25;27.15;;;-0.20;99.90;;;;;;4983145;28;20077;-63
2023/01/25 04:54:50;;;;;;;50.40;26.52;;;-0.30;99.90;;;;;;4987816;28;20460;-63
2023/01/25 04:57:17;;;;;;;51.22;25.45;;;-0.20;99.90;;;;;;4987435;28;20073;-62
2023/01/25 04:59:44;;;;;;;52.53;29.13;;;-0.30;99.90;;;;;;4973173;28;20062;-62
2023/01/25 05:02:12;;;;;;;49.50;27.88;;;0.00;99.90;;;;;;4986810;28;20427;-62
2023/01/25 05:04:39;;;;;;;51.10;27.42;;;-0.20;99.90;;;;;;4985008;28;20054;-63
2023/01/25 05:07:06;;;;;;;52.35;27.50;;;-0.20;99.90;;;;;;4973123;28;20077;-63
2023/01/25 05:09:33;;;;;;;48.83;25.92;;;-0.20;99.90;;;;;;4971511;28;20101;-63
2023/01/25 05:12:00;;;;;;;50.47;27.50;;;-0.20;99.90;;;;;;4989026;28;20053;-62
2023/01/25 05:14:27;;;;;;;51.88;26.33;;;-0.20;99.90;;;;;;4971356;28;20066;-61
2023/01/25 05:16:53;;;;;;;52.92;27.50;;;0.00;99.90;;;;;;4975239;28;20446;-62
2023/01/25 05:19:24;;;;;;;50.95;26.10;;;-0.20;99.90;;;;;;4989933;28;20077;-63
2023/01/25 05:22:00;;;;;;;;;;;-0.20;99.90;;;;;;4975198;28;20050;-63
2023/01/25 05:24:28;;;;;;;48.88;26.73;;;-0.20;99.90;;;;;;4981493;28;19973;-61
2023/01/25 05:27:02;;;;;;;52.10;26.67;;;-0.20;99.90;;;;;;4975272;28;20057;-61
2023/01/25 05:29:30;;;;;;;55.72;29.30;;;-0.20;99.90;;;;;;4975029;28;20043;-62
2023/01/25 05:31:58;;;;;;;54.85;28.58;;;-0.20;99.90;;;;;;4988987;28;20093;-62
2023/01/25 05:34:26;;;;;;;56.50;28.67;;;-0.20;99.90;;;;;;4974449;28;20054;-61
2023/01/25 05:36:53;;;;;;;55.42;28.40;;;-0.30;99.90;;;;;;4993291;28;20395;-62
2023/01/25 05:39:20;;;;;;;51.55;27.15;;;-0.30;99.90;;;;;;4983179;28;20113;-61
2023/01/25 05:41:47;;;;;;;54.70;27.75;;;-0.20;99.90;;;;;;4975594;28;20493;-61
2023/01/25 05:44:14;;;;;;;49.40;26.13;;;-0.20;99.90;;;;;;4982532;28;20050;-62
2023/01/25 05:46:41;;;;;;;48.97;25.63;;;-0.30;99.90;;;;;;4979208;28;20058;-61
2023/01/25 05:49:08;;;;;;;49.38;26.73;;;-0.30;99.90;;;;;;4976109;28;20054;-61
2023/01/25 05:51:37;;;;;;;47.53;25.63;;;-0.30;99.90;;;;;;4978718;28;20043;-61
2023/01/25 05:54:04;;;;;;;50.63;27.52;;;-0.30;99.90;;;;;;4978058;28;20129;-62
2023/01/25 05:56:31;;;;;;;48.28;26.63;;;-0.30;99.90;;;;;;4983380;28;20055;-62
2023/01/25 05:59:00;;;;;;;51.08;25.95;;;-0.30;99.90;;;;;;4980127;28;20553;-62
2023/01/25 06:01:28;;;;;;;53.65;27.45;;;-0.30;99.90;;;;;;4982455;28;20082;-61
2023/01/25 06:03:55;;;;;;;54.90;29.33;;;-0.30;99.90;;;;;;4979652;28;20495;-62
2023/01/25 06:06:22;;;;;;;51.97;27.10;;;-0.30;99.90;;;;;;4973465;28;20067;-61
2023/01/25 06:08:51;;;;;;;60.28;29.27;;;-0.30;99.90;;;;;;4978819;28;20077;-61
2023/01/25 06:11:21;;;;;;;48.28;26.92;;;-0.20;99.90;;;;;;4975029;28;20058;-62
2023/01/25 06:13:48;;;;;;;50.30;26.90;;;-0.10;99.90;;;;;;4988135;28;20050;-61
2023/01/25 06:16:15;;;;;;;52.17;26.42;;;-0.30;99.90;;;;;;4989122;28;20057;-60
2023/01/25 06:18:43;;;;;;;46.85;26.33;;;-0.30;99.90;;;;;;4972484;28;21147;-61
2023/01/25 06:21:10;;;;;;;46.63;26.55;;;-0.30;99.90;;;;;;4989020;28;20046;-61
2023/01/25 06:23:37;;;;;;;50.95;28.13;;;-0.40;99.90;;;;;;4990137;28;20070;-61
2023/01/25 06:26:08;;;;;;;46.47;25.08;;;-0.40;99.90;;;;;;4972964;28;20058;-62
2023/01/25 06:28:36;;;;;;;51.30;27.65;;;-0.40;99.90;;;;;;4984903;28;20048;-62
2023/01/25 06:31:07;;;;;;;48.35;26.02;;;-0.40;99.90;;;;;;4988749;28;20491;-62
2023/01/25 06:33:34;;;;;;;54.33;26.23;;;-0.40;99.90;;;;;;4987386;28;20054;-62
2023/01/25 06:36:02;;;;;;;48.30;25.75;;;-0.40;99.90;;;;;;4986011;28;20055;-61
2023/01/25 06:38:29;;;;;;;44.95;25.05;;;-0.30;99.90;;;;;;4989878;28;20054;-61
2023/01/25 06:41:00;;;;;;;51.42;26.80;;;-0.40;99.90;;;;;;4987056;28;20073;-62
2023/01/25 06:43:28;;;;;;;49.78;26.88;;;-0.40;99.90;;;;;;4973729;28;20146;-62
2023/01/25 06:45:59;;;;;;;46.45;25.35;;;-0.40;99.90;;;;;;4991338;28;20042;-63
2023/01/25 06:48:26;;;;;;;48.70;27.85;;;-0.40;99.90;;;;;;4988157;28;20054;-63
2023/01/25 06:50:57;;;;;;;50.60;26.95;;;-0.50;99.90;;;;;;4987652;28;20052;-61
2023/01/25 06:53:26;;;;;;;48.53;25.95;;;-0.50;99.90;;;;;;4971625;28;20117;-62
2023/01/25 06:55:59;;;;;;;52.38;27.00;;;-0.50;99.90;;;;;;4985821;28;20138;-62
2023/01/25 06:58:29;;;;;;;46.13;24.92;;;-0.60;99.90;;;;;;4988571;28;20414;-63
2023/01/25 07:01:01;;;;;;;46.13;25.42;;;-0.50;99.90;;;;;;4971255;28;20062;-63
2023/01/25 07:03:28;;;;;;;50.35;28.85;;;-0.50;99.90;;;;;;4989632;28;20078;-63
2023/01/25 07:05:58;;;;;;;53.90;26.08;;;-0.60;99.90;;;;;;4974118;28;20502;-63
2023/01/25 07:08:25;;;;;;;48.28;25.55;;;-0.60;99.90;;;;;;4975161;28;20061;-60
2023/01/25 07:10:56;;;;;;;49.63;26.50;;;-0.50;99.90;;;;;;4989178;28;20486;-63
2023/01/25 07:13:23;;;;;;;51.00;26.88;;;-0.40;99.90;;;;;;4986931;28;20479;-61
2023/01/25 07:15:56;;;;;;;50.75;26.80;;;-0.50;99.90;;;;;;4987584;28;20403;-62
2023/01/25 07:18:23;;;;;;;48.53;26.63;;;-0.50;99.90;;;;;;4985444;28;20069;-62
2023/01/25 07:20:51;;;;;;;49.33;25.98;;;-0.50;99.90;;;;;;4988019;28;20061;-62
2023/01/25 07:23:18;;;;;;;48.45;25.95;;;-0.50;99.90;;;;;;4973332;28;20418;-62
2023/01/25 07:25:46;;;;;;;45.83;25.00;;;-0.40;99.90;;;;;;4973516;28;20050;-63
2023/01/25 07:28:13;;;;;;;45.28;26.08;;;-0.50;99.90;;;;;;4987352;28;20049;-62
2023/01/25 07:30:41;;;;;;;44.90;26.13;;;-0.60;99.90;;;;;;4970618;28;20092;-62
2023/01/25 07:33:10;;;;;;;42.50;25.60;;;-0.70;99.90;;;;;;4987559;28;20586;-62
2023/01/25 07:35:37;;;;;;;39.25;22.85;;;-0.70;99.90;;;;;;4971731;28;20772;-63
2023/01/25 07:38:04;;;;;;;39.85;24.02;;;-0.70;99.90;;;;;;4985109;28;20073;-63
2023/01/25 07:40:31;;;;;;;36.42;20.70;;;-0.70;99.90;;;;;;4972644;28;20052;-63
2023/01/25 07:42:58;;;;;;;42.22;21.88;;;-0.80;99.90;;;;;;4973556;28;20073;-63
2023/01/25 07:45:29;;;;;;;40.20;23.25;;;-0.70;99.90;;;;;;4988929;28;20134;-62
2023/01/25 07:47:57;;;;;;;38.75;21.70;;;-0.70;99.90;;;;;;4972876;28;20069;-62
2023/01/25 07:50:26;;;;;;;37.97;20.52;;;-0.70;99.90;;;;;;4987901;28;20521;-63
2023/01/25 07:52:53;;;;;;;36.85;20.83;;;-0.70;99.90;;;;;;4969844;28;20046;-63
2023/01/25 07:55:20;;;;;;;39.00;23.40;;;-0.70;99.90;;;;;;4971762;28;20388;-63
2023/01/25 07:57:47;;;;;;;38.55;22.33;;;-0.70;99.90;;;;;;4988978;28;20362;-63
2023/01/25 08:00:15;;;;;;;39.92;23.05;;;-0.70;99.90;;;;;;4971909;28;20049;-62
2023/01/25 08:02:42;;;;;;;42.03;22.13;;;-0.70;99.90;;;;;;4989526;28;20434;-62
2023/01/25 08:05:09;;;;;;;40.85;23.60;;;-0.70;99.90;;;;;;4982643;28;20058;-63
2023/01/25 08:07:38;;;;;;;39.47;22.67;;;-0.70;99.90;;;;;;4987105;28;20137;-62
2023/01/25 08:10:06;;;;;;;36.78;22.63;;;-0.80;99.90;;;;;;4972877;28;20066;-62
2023/01/25 08:12:33;;;;;;;36.40;21.60;;;-0.70;99.90;;;;;;4970201;28;20568;-62
2023/01/25 08:15:00;;;;;;;38.40;22.42;;;-0.80;99.90;;;;;;4986325;28;20148;-62
2023/01/25 08:17:31;;;;;;;40.17;23.13;;;-0.50;99.90;;;;;;4973262;28;20500;-61
2023/01/25 08:19:58;;;;;;;44.42;24.15;;;-0.70;99.90;;;;;;4956281;28;20066;-62
2023/01/25 08:22:25;;;;;;;40.10;22.52;;;-0.70;99.90;;;;;;4956928;28;21286;-62
2023/01/25 08:24:53;;;;;;;42.22;24.50;;;-0.70;99.90;;;;;;4983101;28;20065;-63
2023/01/25 08:27:21;;;;;;;41.78;23.23;;;-0.70;99.90;;;;;;4965666;28;20129;-62
2023/01/25 08:29:49;;;;;;;43.67;22.98;;;-0.70;99.90;;;;;;4986422;28;20050;-63
2023/01/25 08:32:16;;;;;;;40.70;21.83;;;-0.70;99.90;;;;;;4971990;28;21249;-62
2023/01/25 08:34:43;;;;;;;42.33;23.88;;;-0.70;99.90;;;;;;4991543;28;20050;-62
2023/01/25 08:37:09;;;;;;;42.33;24.17;;;-0.60;99.90;;;;;;4974727;28;20050;-63
2023/01/25 08:39:36;;;;;;;44.03;25.00;;;-0.60;99.90;;;;;;4987732;28;20043;-63
2023/01/25 08:42:06;;;;;;;45.22;23.52;;;-0.60;99.90;;;;;;4973084;28;20047;-62
2023/01/25 08:44:33;;;;;;;42.80;23.38;;;-0.60;99.90;;;;;;4973889;28;20093;-63
2023/01/25 08:47:00;;;;;;;43.60;23.80;;;-0.60;99.90;;;;;;4973481;28;20430;-63
2023/01/25 08:49:27;;;;;;;37.95;21.88;;;-0.60;99.90;;;;;;4972286;28;20049;-62
2023/01/25 08:51:53;;;;;;;41.17;22.80;;;-0.70;99.90;;;;;;4976480;28;20053;-61
2023/01/25 08:54:20;;;;;;;37.30;21.42;;;-0.70;99.90;;;;;;4981442;28;20054;-62
2023/01/25 08:56:47;;;;;;;44.47;24.17;;;-0.70;99.90;;;;;;4974983;28;20541;-62
2023/01/25 08:59:15;;;;;;;42.42;23.63;;;-0.70;99.90;;;;;;4975669;28;20062;-62
2023/01/25 09:01:42;;;;;;;41.63;23.60;;;-0.70;99.90;;;;;;4974839;28;20046;-62
2023/01/25 09:04:09;;;;;;;44.65;24.00;;;-0.70;99.90;;;;;;4975603;28;20051;-62
2023/01/25 09:06:36;;;;;;;42.70;24.17;;;-0.60;99.90;;;;;;4977126;28;20053;-62
2023/01/25 09:09:04;;;;;;;39.05;21.33;;;-0.70;99.90;;;;;;4974813;28;20050;-64
2023/01/25 09:11:33;;;;;;;47.20;25.55;;;-0.70;99.90;;;;;;4975307;28;20078;-62
2023/01/25 09:14:00;;;;;;;42.92;25.13;;;-0.70;99.90;;;;;;4975052;28;20062;-62
2023/01/25 09:16:28;;;;;;;47.85;24.30;;;-0.70;99.90;;;;;;4984665;28;20046;-63
2023/01/25 09:18:56;;;;;;;50.15;25.58;;;-0.80;99.90;;;;;;4995667;28;20074;-62
2023/01/25 09:21:24;;;;;;;44.00;23.98;;;-0.80;99.90;;;;;;4978504;28;20073;-63
2023/01/25 09:23:52;;;;;;;45.45;22.42;;;-0.70;99.90;;;;;;4977831;28;20410;-62
2023/01/25 09:26:19;;;;;;;44.75;25.10;;;-0.80;99.90;;;;;;4973037;28;20086;-62
2023/01/25 09:28:48;;;;;;;45.60;24.60;;;-0.70;99.90;;;;;;4974873;28;20054;-63
2023/01/25 09:31:15;;;;;;;45.42;25.35;;;-0.70;99.90;;;;;;4984276;28;20053;-62
2023/01/25 09:33:43;;;;;;;45.60;23.38;;;-0.70;99.90;;;;;;4994738;28;20058;-63
2023/01/25 09:36:10;;;;;;;45.10;23.55;;;-0.70;99.90;;;;;;4978313;28;20050;-63
2023/01/25 09:38:38;;;;;;;44.60;24.80;;;-0.70;99.90;;;;;;4977170;28;20050;-64
2023/01/25 09:41:14;;;;;;;49.65;25.50;;;-0.70;99.90;;;;;;4995095;28;20047;-62
2023/01/25 09:44:04;;;;;;;44.72;24.00;;;-0.70;99.90;;;;;;4973291;28;20562;-62
2023/01/25 09:46:37;;;;;;;;;;;-0.60;99.90;;;;;;4982821;28;20081;-62
2023/01/25 09:49:21;;;;;;;47.40;23.50;;;-0.60;99.90;;;;;;4994757;28;19929;-62
2023/01/25 09:52:07;;;;;;;45.80;23.67;;;-0.50;99.90;;;;;;4976585;28;20118;-62
2023/01/25 09:54:39;;;;;;;43.20;22.80;;;-0.50;99.90;;;;;;4994336;28;20100;-63
2023/01/25 09:57:14;;;;;;;44.28;23.83;;;-0.50;99.90;;;;;;4994479;28;20046;-62
2023/01/25 09:59:41;;;;;;;41.67;22.80;;;-0.50;99.90;;;;;;4994092;28;20046;-62
2023/01/25 10:02:19;;;;;;;45.13;22.88;;;-0.50;99.90;;;;;;4976730;28;20054;-62
2023/01/25 10:04:52;;;;;;;44.42;24.70;;;-0.40;99.90;;;;;;4977087;28;20053;-62
2023/01/25 10:07:23;;;;;;;43.53;24.73;;;-0.40;99.90;;;;;;4976267;28;20051;-63
2023/01/25 10:09:59;;;;;;;49.90;25.33;;;-0.40;99.90;;;;;;4976065;28;20050;-61
2023/01/25 10:12:28;;;;;;;45.33;24.33;;;-0.40;99.90;;;;;;4958240;28;20435;-61
2023/01/25 10:14:54;;;;;;;46.40;24.17;;;-0.40;99.90;;;;;;4958901;28;20042;-62
2023/01/25 10:17:31;;;;;;;45.75;23.60;;;-0.40;99.90;;;;;;4976669;28;20050;-62
2023/01/25 10:20:20;;;;;;;44.30;23.17;;;-0.40;99.90;;;;;;4991654;28;20133;-62
2023/01/25 10:22:50;;;;;;;43.95;23.50;;;-0.40;99.90;;;;;;4976853;28;20065;-61
2023/01/25 10:25:35;;;;;;;44.28;22.45;;;-0.30;99.90;;;;;;4977101;28;20054;-62
2023/01/25 10:28:16;;;;;;;48.75;24.52;;;-0.30;99.90;;;;;;4975019;28;20486;-61
2023/01/25 10:30:52;;;;;;;47.40;25.58;;;-0.30;99.90;;;;;;4979517;28;20457;-63
2023/01/25 10:33:20;;;;;;;49.55;22.30;;;-0.20;99.90;;;;;;4975251;28;20435;-62
2023/01/25 10:35:50;;;;;;;41.45;21.50;;;-0.20;99.90;;;;;;4975793;28;20058;-62
2023/01/25 10:38:24;;;;;;;47.47;24.05;;;-0.10;99.90;;;;;;4973889;28;20054;-62
2023/01/25 10:40:56;;;;;;;40.03;21.85;;;-0.10;99.90;;;;;;4975119;28;20561;-62
2023/01/25 10:43:23;;;;;;;45.33;22.92;;;-0.10;99.90;;;;;;4973837;28;20051;-61
2023/01/25 10:45:51;;;;;;;45.38;22.85;;;0.00;99.90;;;;;;4973819;28;20047;-62
2023/01/25 10:48:21;;;;;;;41.10;23.17;;;0.10;99.90;;;;;;4971827;28;20058;-62
2023/01/25 10:50:52;;;;;;;41.65;21.88;;;0.10;99.90;;;;;;4976749;28;20473;-62
2023/01/25 10:53:31;;;;;;;42.60;22.70;;;-0.80;99.90;;;;;;4993492;28;20062;-62
2023/01/25 10:56:22;;;;;;;49.33;24.50;;;0.20;99.90;;;;;;4975875;28;20058;-61
2023/01/25 10:58:50;;;;;;;45.78;23.92;;;0.30;99.90;;;;;;4993319;28;20053;-63
2023/01/25 11:01:32;;;;;;;44.30;22.42;;;0.20;99.90;;;;;;4976071;28;20050;-63
2023/01/25 11:04:00;;;;;;;39.88;21.63;;;0.30;99.90;;;;;;4976082;28;20057;-62
2023/01/25 11:06:34;;;;;;;41.65;20.88;;;0.30;99.90;;;;;;4993369;28;20054;-62
2023/01/25 11:09:01;;;;;;;43.70;21.92;;;0.40;99.90;;;;;;4974838;28;20078;-62
2023/01/25 11:11:34;;;;;;;48.63;22.90;;;0.40;99.90;;;;;;4971243;28;20053;-62
2023/01/25 11:14:02;;;;;;;42.75;22.23;;;0.40;99.90;;;;;;4957275;28;20050;-62
2023/01/25 11:16:35;;;;;;;42.83;22.45;;;0.40;99.90;;;;;;4957309;28;20054;-61
2023/01/25 11:19:03;;;;;;;44.33;21.58;;;0.30;99.90;;;;;;4974947;28;20068;-62
2023/01/25 11:21:33;;;;;;;49.63;22.48;;;0.40;99.90;;;;;;4975194;28;20050;-63
2023/01/25 11:24:01;;;;;;;;;;;0.40;99.90;;;;;;4959058;28;20081;-63
2023/01/25 11:26:30;;;;;;;41.60;21.77;;;0.40;99.90;;;;;;4981837;28;19922;-63
2023/01/25 11:29:11;;;;;;;46.33;23.17;;;0.40;99.90;;;;;;4989090;28;20050;-62
2023/01/25 11:31:40;;;;;;;;;;;0.40;99.90;;;;;;4984890;28;20043;-62
2023/01/25 11:34:10;;;;;;;46.15;23.80;;;0.50;99.90;;;;;;4971236;28;19930;-62
2023/01/25 11:36:49;;;;;;;48.35;24.38;;;0.60;99.90;;;;;;4979788;28;20062;-62
2023/01/25 11:39:28;;;;;;;45.63;22.33;;;0.50;99.90;;;;;;4981321;28;20051;-63
2023/01/25 11:42:09;;;;;;;44.72;21.98;;;0.50;99.90;;;;;;4977326;28;20545;-63
2023/01/25 11:45:11;;;;;;;46.42;22.85;;;0.50;99.90;;;;;;4979709;28;20062;-61
2023/01/25 11:47:51;;;;;;;42.97;21.85;;;0.50;99.90;;;;;;4963225;28;20499;-63
2023/01/25 11:50:24;;;;;;;39.78;20.95;;;0.50;99.90;;;;;;4968643;28;20961;-63
2023/01/25 11:53:04;;;;;;;43.58;22.45;;;0.60;99.90;;;;;;4974870;28;20046;-62
2023/01/25 11:55:37;;;;;;;48.73;22.30;;;0.50;99.90;;;;;;4978479;28;20086;-62
2023/01/25 11:58:21;;;;;;;50.53;23.00;;;0.60;99.90;;;;;;4981255;28;20042;-62
2023/01/25 12:01:01;;;;;;;47.55;23.08;;;0.60;99.90;;;;;;4967935;28;20098;-63
2023/01/25 12:03:51;;;;;;;42.00;21.02;;;0.60;99.90;;;;;;4982627;28;20066;-62
2023/01/25 12:06:24;;;;;;;52.65;19.70;;;0.60;99.90;;;;;;4982325;28;20050;-62
2023/01/25 12:09:05;;;;;;;39.63;20.60;;;0.70;99.90;;;;;;4984362;28;20454;-62
2023/01/25 12:11:44;;;;;;;42.85;20.65;;;0.60;99.90;;;;;;4984445;28;20042;-62
2023/01/25 12:14:22;;;;;;;47.25;22.75;;;0.60;99.90;;;;;;4969058;28;20069;-62
2023/01/25 12:17:04;;;;;;;50.78;23.63;;;0.60;99.90;;;;;;4970699;28;20065;-62
2023/01/25 12:19:46;;;;;;;48.28;24.00;;;0.60;99.90;;;;;;4987082;28;20536;-62
2023/01/25 12:22:39;;;;;;;43.70;20.83;;;0.70;99.90;;;;;;4983592;28;20109;-62
2023/01/25 12:25:20;;;;;;;47.50;22.10;;;0.60;99.90;;;;;;4980241;28;20046;-62
2023/01/25 12:28:03;;;;;;;47.72;23.45;;;0.70;99.90;;;;;;4984885;28;20414;-63
2023/01/25 12:30:42;;;;;;;51.15;21.83;;;0.70;99.90;;;;;;4969538;28;20069;-62
2023/01/25 12:33:15;;;;;;;43.20;22.05;;;0.70;99.90;;;;;;4972039;28;20053;-62
2023/01/25 12:35:45;;;;;;;50.33;21.42;;;0.70;99.90;;;;;;4955695;28;20062;-62
2023/01/25 12:38:15;;;;;;;;;;;0.70;99.90;;;;;;4973669;28;20046;-62
2023/01/25 12:40:50;;;;;;;46.95;21.85;;;0.70;99.90;;;;;;4974167;28;19997;-63
2023/01/25 12:43:21;;;;;;;44.83;20.83;;;0.90;99.90;;;;;;4973849;28;20046;-62
2023/01/25 12:45:50;;;;;;;46.30;22.05;;;0.80;99.90;;;;;;4973488;28;20054;-62